createdAt,value
2017-10-06T00:00:35.462Z,89.84
2017-10-06T00:01:47.958Z,90.89
2017-10-06T00:03:00.436Z,90.61
2017-10-06T00:04:12.632Z,90.8
2017-10-06T00:05:25.133Z,90.89
2017-10-06T00:06:37.623Z,91.27
2017-10-06T00:07:49.519Z,91.46
2017-10-06T00:09:01.690Z,90.51
2017-10-06T00:10:13.886Z,90.89
2017-10-06T00:11:26.081Z,91.65
2017-10-06T00:12:38.575Z,90.61
2017-10-06T00:13:50.773Z,91.84
2017-10-06T00:15:03.285Z,92.13
2017-10-06T00:16:15.481Z,90.8
2017-10-06T00:17:27.659Z,90.32
2017-10-06T00:18:40.171Z,90.7
2017-10-06T00:19:52.378Z,90.32
2017-10-06T00:21:04.522Z,91.08
2017-10-06T00:22:17.016Z,90.7
2017-10-06T00:23:29.530Z,91.08
2017-10-06T00:24:42.008Z,90.32
2017-10-06T00:25:54.502Z,91.08
2017-10-06T00:27:07.016Z,92.51
2017-10-06T00:28:19.195Z,91.84
2017-10-06T00:29:31.369Z,90.32
2017-10-06T00:30:43.253Z,89.84
2017-10-06T00:31:55.431Z,91.84
2017-10-06T00:33:07.995Z,92.6
2017-10-06T00:34:20.475Z,92.03
2017-10-06T00:35:32.669Z,91.65
2017-10-06T00:36:45.190Z,90.61
2017-10-06T00:37:57.685Z,91.37
2017-10-06T00:39:09.881Z,90.51
2017-10-06T00:40:21.482Z,91.17
2017-10-06T00:41:33.973Z,91.84
2017-10-06T00:42:46.466Z,92.13
2017-10-06T00:43:58.664Z,91.56
2017-10-06T00:45:10.534Z,90.99
2017-10-06T00:46:22.705Z,90.51
2017-10-06T00:47:35.217Z,91.08
2017-10-06T00:48:47.695Z,92.22
2017-10-06T00:50:00.192Z,91.56
2017-10-06T00:51:12.387Z,91.84
2017-10-06T00:52:24.599Z,91.84
2017-10-06T00:53:36.778Z,92.41
2017-10-06T00:54:48.976Z,91.17
2017-10-06T00:56:01.486Z,92.03
2017-10-06T00:57:13.682Z,91.56
2017-10-06T00:58:25.878Z,91.65
2017-10-06T00:59:38.086Z,92.22
2017-10-06T01:00:50.579Z,92.6
2017-10-06T01:02:02.473Z,92.03
2017-10-06T01:03:14.986Z,90.89
2017-10-06T01:04:27.163Z,91.75
2017-10-06T01:05:39.660Z,90.89
2017-10-06T01:06:51.873Z,91.65
2017-10-06T01:08:04.050Z,91.75
2017-10-06T01:09:16.546Z,90.22
2017-10-06T01:10:29.041Z,91.08
2017-10-06T01:11:41.534Z,90.61
2017-10-06T01:12:53.110Z,90.51
2017-10-06T01:14:04.680Z,90.99
2017-10-06T01:15:17.192Z,91.94
2017-10-06T01:16:29.388Z,91.46
2017-10-06T01:17:41.867Z,91.08
2017-10-06T01:18:54.390Z,90.61
2017-10-06T01:20:06.289Z,90.42
2017-10-06T01:21:18.495Z,90.7
2017-10-06T01:22:30.676Z,89.84
2017-10-06T01:23:42.870Z,90.7
2017-10-06T01:24:55.073Z,90.13
2017-10-06T01:26:07.288Z,90.99
2017-10-06T01:27:19.498Z,90.61
2017-10-06T01:28:31.381Z,90.89
2017-10-06T01:29:42.666Z,91.56
2017-10-06T01:30:54.844Z,90.89
2017-10-06T01:32:07.041Z,91.37
2017-10-06T01:33:19.236Z,91.08
2017-10-06T01:34:31.732Z,91.37
2017-10-06T01:35:44.248Z,91.94
2017-10-06T01:36:56.422Z,90.8
2017-10-06T01:38:08.618Z,90.8
2017-10-06T01:39:20.816Z,91.84
2017-10-06T01:40:33.009Z,91.65
2017-10-06T01:41:45.210Z,91.84
2017-10-06T01:42:57.401Z,92.41
2017-10-06T01:44:09.596Z,91.65
2017-10-06T01:45:21.784Z,92.32
2017-10-06T01:46:34.280Z,91.94
2017-10-06T01:47:46.760Z,91.46
2017-10-06T01:48:58.946Z,91.75
2017-10-06T01:50:11.127Z,92.79
2017-10-06T01:51:23.648Z,91.94
2017-10-06T01:52:35.839Z,92.41
2017-10-06T01:53:48.036Z,92.51
2017-10-06T01:54:59.607Z,92.03
2017-10-06T01:56:11.809Z,92.41
2017-10-06T01:57:24.315Z,92.22
2017-10-06T01:58:36.794Z,91.37
2017-10-06T01:59:48.989Z,92.41
2017-10-06T02:01:01.484Z,92.41
2017-10-06T02:02:13.998Z,93.18
2017-10-06T02:03:26.194Z,92.41
2017-10-06T02:04:38.674Z,92.51
2017-10-06T02:05:51.167Z,91.84
2017-10-06T02:07:03.674Z,91.75
2017-10-06T02:08:15.876Z,91.94
2017-10-06T02:09:28.622Z,91.94
2017-10-06T02:10:41.099Z,93.37
2017-10-06T02:11:53.273Z,93.74
2017-10-06T02:13:05.166Z,93.94
2017-10-06T02:14:17.361Z,93.37
2017-10-06T02:15:29.858Z,92.99
2017-10-06T02:16:42.356Z,93.18
2017-10-06T02:17:54.566Z,93.27
2017-10-06T02:19:06.763Z,94.13
2017-10-06T02:20:18.639Z,93.94
2017-10-06T02:21:30.511Z,93.94
2017-10-06T02:22:42.749Z,93.37
2017-10-06T02:23:55.244Z,92.79
2017-10-06T02:25:07.124Z,93.18
2017-10-06T02:26:19.619Z,93.27
2017-10-06T02:27:32.115Z,92.99
2017-10-06T02:28:44.610Z,92.89
2017-10-06T02:29:56.807Z,93.84
2017-10-06T02:31:08.678Z,93.37
2017-10-06T02:32:20.874Z,94.03
2017-10-06T02:33:33.384Z,93.18
2017-10-06T02:34:44.981Z,94.6
2017-10-06T02:35:57.491Z,94.03
2017-10-06T02:37:10.006Z,93.94
2017-10-06T02:38:22.500Z,93.08
2017-10-06T02:39:34.397Z,93.08
2017-10-06T02:40:46.592Z,92.13
2017-10-06T02:41:58.804Z,92.6
2017-10-06T02:43:11.325Z,91.56
2017-10-06T02:44:23.804Z,91.94
2017-10-06T02:45:35.698Z,91.75
2017-10-06T02:46:48.194Z,90.99
2017-10-06T02:48:00.693Z,91.08
2017-10-06T02:49:12.888Z,91.65
2017-10-06T02:50:25.084Z,91.56
2017-10-06T02:51:37.293Z,91.75
2017-10-06T02:52:49.191Z,90.99
2017-10-06T02:54:01.394Z,90.99
2017-10-06T02:55:13.932Z,90.7
2017-10-06T02:56:26.127Z,91.08
2017-10-06T02:57:38.005Z,91.46
2017-10-06T02:58:50.501Z,92.22
2017-10-06T03:00:02.399Z,92.03
2017-10-06T03:01:14.285Z,93.08
2017-10-06T03:02:26.464Z,92.51
2017-10-06T03:03:38.961Z,92.32
2017-10-06T03:04:51.472Z,92.22
2017-10-06T03:06:03.649Z,93.08
2017-10-06T03:07:15.225Z,92.79
2017-10-06T03:08:27.417Z,92.79
2017-10-06T03:09:39.911Z,92.89
2017-10-06T03:10:52.100Z,92.89
2017-10-06T03:12:04.306Z,93.74
2017-10-06T03:13:16.516Z,93.18
2017-10-06T03:14:29.275Z,93.27
2017-10-06T03:15:41.458Z,93.18
2017-10-06T03:16:53.954Z,93.08
2017-10-06T03:18:06.136Z,93.65
2017-10-06T03:19:18.328Z,93.84
2017-10-06T03:20:30.525Z,94.51
2017-10-06T03:21:42.417Z,93.74
2017-10-06T03:22:54.931Z,94.42
2017-10-06T03:24:07.128Z,95.27
2017-10-06T03:25:19.604Z,94.51
2017-10-06T03:26:31.478Z,94.89
2017-10-06T03:27:43.977Z,94.89
2017-10-06T03:28:56.485Z,94.51
2017-10-06T03:30:08.664Z,94.13
2017-10-06T03:31:20.551Z,94.42
2017-10-06T03:32:33.028Z,94.51
2017-10-06T03:33:45.217Z,95.27
2017-10-06T03:34:57.696Z,95.36
2017-10-06T03:36:09.891Z,95.27
2017-10-06T03:37:22.063Z,96.31
2017-10-06T03:38:34.575Z,95.17
2017-10-06T03:39:47.053Z,95.17
2017-10-06T03:40:59.249Z,94.6
2017-10-06T03:42:11.744Z,95.27
2017-10-06T03:43:23.957Z,94.42
2017-10-06T03:44:36.204Z,94.22
2017-10-06T03:45:48.699Z,93.37
2017-10-06T03:47:01.495Z,94.03
2017-10-06T03:48:13.390Z,93.46
2017-10-06T03:49:25.585Z,94.03
2017-10-06T03:50:38.081Z,93.94
2017-10-06T03:51:49.964Z,93.37
2017-10-06T03:53:02.458Z,94.51
2017-10-06T03:54:14.655Z,94.22
2017-10-06T03:55:27.189Z,94.22
2017-10-06T03:56:39.684Z,93.46
2017-10-06T03:57:51.880Z,93.08
2017-10-06T03:59:03.763Z,92.13
2017-10-06T04:00:15.947Z,92.51
2017-10-06T04:01:28.442Z,92.51
2017-10-06T04:02:40.349Z,92.6
2017-10-06T04:03:52.558Z,93.08
2017-10-06T04:05:04.755Z,93.27
2017-10-06T04:06:17.275Z,92.89
2017-10-06T04:07:29.471Z,93.84
2017-10-06T04:08:41.974Z,93.94
2017-10-06T04:09:54.487Z,94.03
2017-10-06T04:11:06.664Z,93.94
2017-10-06T04:12:18.853Z,93.94
2017-10-06T04:13:31.049Z,92.99
2017-10-06T04:14:43.528Z,93.46
2017-10-06T04:15:55.715Z,94.42
2017-10-06T04:17:07.897Z,93.65
2017-10-06T04:18:20.390Z,92.89
2017-10-06T04:19:32.585Z,92.79
2017-10-06T04:20:45.098Z,92.99
2017-10-06T04:21:57.276Z,92.51
2017-10-06T04:23:09.476Z,91.65
2017-10-06T04:24:21.967Z,91.08
2017-10-06T04:25:34.480Z,90.61
2017-10-06T04:26:46.958Z,91.08
2017-10-06T04:27:58.847Z,90.42
2017-10-06T04:29:11.052Z,90.03
2017-10-06T04:30:23.548Z,90.13
2017-10-06T04:31:35.741Z,90.13
2017-10-06T04:32:47.912Z,89.75
2017-10-06T04:34:00.107Z,89.84
2017-10-06T04:35:12.303Z,89.94
2017-10-06T04:36:24.503Z,90.03
2017-10-06T04:37:37.012Z,89.65
2017-10-06T04:38:49.489Z,89.47
2017-10-06T04:40:01.703Z,89.75
2017-10-06T04:41:14.200Z,89.37
2017-10-06T04:42:26.705Z,89.47
2017-10-06T04:43:39.214Z,90.13
2017-10-06T04:44:51.410Z,90.51
2017-10-06T04:46:03.589Z,89.37
2017-10-06T04:47:15.784Z,88.79
2017-10-06T04:48:27.997Z,88.79
2017-10-06T04:49:40.477Z,89.56
2017-10-06T04:50:52.974Z,89.94
2017-10-06T04:52:05.184Z,90.13
2017-10-06T04:53:17.664Z,89.75
2017-10-06T04:54:30.175Z,89.84
2017-10-06T04:55:41.747Z,89.94
2017-10-06T04:56:53.925Z,89.65
2017-10-06T04:58:06.420Z,89.56
2017-10-06T04:59:17.991Z,89.08
2017-10-06T05:00:29.860Z,90.13
2017-10-06T05:01:42.049Z,89.75
2017-10-06T05:02:54.845Z,89.65
2017-10-06T05:04:07.023Z,89.65
2017-10-06T05:05:19.518Z,90.32
2017-10-06T05:06:31.715Z,89.94
2017-10-06T05:07:43.927Z,90.99
2017-10-06T05:08:56.431Z,91.46
2017-10-06T05:10:08.944Z,91.84
2017-10-06T05:11:21.123Z,90.8
2017-10-06T05:12:33.335Z,90.7
2017-10-06T05:13:45.813Z,91.46
2017-10-06T05:14:58.310Z,90.61
2017-10-06T05:16:10.505Z,92.03
2017-10-06T05:17:22.700Z,90.8
2017-10-06T05:18:34.872Z,91.46
2017-10-06T05:19:47.067Z,93.08
2017-10-06T05:20:59.580Z,91.46
2017-10-06T05:22:11.459Z,92.89
2017-10-06T05:23:23.655Z,92.7
2017-10-06T05:24:36.155Z,92.79
2017-10-06T05:25:48.345Z,92.6
2017-10-06T05:27:00.847Z,93.27
2017-10-06T05:28:13.054Z,93.18
2017-10-06T05:29:24.938Z,93.27
2017-10-06T05:30:37.153Z,93.46
2017-10-06T05:31:49.344Z,94.32
2017-10-06T05:33:01.562Z,93.84
2017-10-06T05:34:14.066Z,93.94
2017-10-06T05:35:26.566Z,94.03
2017-10-06T05:36:39.072Z,93.74
2017-10-06T05:37:51.252Z,94.51
2017-10-06T05:39:03.765Z,94.89
2017-10-06T05:40:16.250Z,94.7
2017-10-06T05:41:28.746Z,94.03
2017-10-06T05:42:40.951Z,94.42
2017-10-06T05:43:53.432Z,94.13
2017-10-06T05:45:05.943Z,95.08
2017-10-06T05:46:17.538Z,94.03
2017-10-06T05:47:29.734Z,94.51
2017-10-06T05:48:41.912Z,94.79
2017-10-06T05:49:54.410Z,96.03
2017-10-06T05:51:06.304Z,95.27
2017-10-06T05:52:18.192Z,95.65
2017-10-06T05:53:30.372Z,95.46
2017-10-06T05:54:42.883Z,95.56
2017-10-06T05:55:55.079Z,95.17
2017-10-06T05:57:07.257Z,95.27
2017-10-06T05:58:19.433Z,96.98
2017-10-06T05:59:31.323Z,96.6
2017-10-06T06:00:43.837Z,97.74
2017-10-06T06:01:56.032Z,97.46
2017-10-06T06:03:07.936Z,97.55
2017-10-06T06:04:20.437Z,97.6
2017-10-06T06:05:32.645Z,97.03
2017-10-06T06:06:44.525Z,96.89
2017-10-06T06:07:57.025Z,96.65
2017-10-06T06:09:08.614Z,96.6
2017-10-06T06:10:21.127Z,97.6
2017-10-06T06:11:33.631Z,97.31
2017-10-06T06:12:45.894Z,96.65
2017-10-06T06:13:58.388Z,96.94
2017-10-06T06:15:10.567Z,96.08
2017-10-06T06:16:23.082Z,94.74
2017-10-06T06:17:35.576Z,93.89
2017-10-06T06:18:48.305Z,92.74
2017-10-06T06:20:00.817Z,92.74
2017-10-06T06:21:12.698Z,92.65
2017-10-06T06:22:24.909Z,92.18
2017-10-06T06:23:37.087Z,93.13
2017-10-06T06:24:49.584Z,92.27
2017-10-06T06:26:02.081Z,91.41
2017-10-06T06:27:13.991Z,91.99
2017-10-06T06:28:25.874Z,91.99
2017-10-06T06:29:37.457Z,91.22
2017-10-06T06:30:49.386Z,92.65
2017-10-06T06:32:01.581Z,92.55
2017-10-06T06:33:13.795Z,93.41
2017-10-06T06:34:25.979Z,93.79
2017-10-06T06:35:38.472Z,93.89
2017-10-06T06:36:50.365Z,93.6
2017-10-06T06:38:02.878Z,94.56
2017-10-06T06:39:15.355Z,94.65
2017-10-06T06:40:27.803Z,94.46
2017-10-06T06:41:39.699Z,95.6
2017-10-06T06:42:52.210Z,95.22
2017-10-06T06:44:04.417Z,97.51
2017-10-06T06:45:16.932Z,97.7
2017-10-06T06:46:29.110Z,96.27
2017-10-06T06:47:41.642Z,97.13
2017-10-06T06:48:54.139Z,96.55
2017-10-06T06:50:06.658Z,96.17
2017-10-06T06:51:18.537Z,97.6
2017-10-06T06:52:31.034Z,96.65
2017-10-06T06:53:43.246Z,96.89
2017-10-06T06:54:55.449Z,96.22
2017-10-06T06:56:07.321Z,96.65
2017-10-06T06:57:19.840Z,95.46
2017-10-06T06:58:32.353Z,94.79
2017-10-06T06:59:44.849Z,94.7
2017-10-06T07:00:57.034Z,94.79
2017-10-06T07:02:08.925Z,94.79
2017-10-06T07:03:21.419Z,94.41
2017-10-06T07:04:33.957Z,93.84
2017-10-06T07:05:46.437Z,93.65
2017-10-06T07:06:58.954Z,93.65
2017-10-06T07:08:10.543Z,94.03
2017-10-06T07:09:22.721Z,92.69
2017-10-06T07:10:35.235Z,91.55
2017-10-06T07:11:47.431Z,91.79
2017-10-06T07:12:59.609Z,91.7
2017-10-06T07:14:11.804Z,90.84
2017-10-06T07:15:24.292Z,90.84
2017-10-06T07:16:36.173Z,89.7
2017-10-06T07:17:48.383Z,89.22
2017-10-06T07:19:00.580Z,89.41
2017-10-06T07:20:13.075Z,88.93
2017-10-06T07:21:24.971Z,89.7
2017-10-06T07:22:37.151Z,89.22
2017-10-06T07:23:49.344Z,89.61
2017-10-06T07:25:01.541Z,88.27
2017-10-06T07:26:13.753Z,88.27
2017-10-06T07:27:25.632Z,87.6
2017-10-06T07:28:38.144Z,87.51
2017-10-06T07:29:50.024Z,86.65
2017-10-06T07:31:02.526Z,86.46
2017-10-06T07:32:15.040Z,86.18
2017-10-06T07:33:27.235Z,85.41
2017-10-06T07:34:39.132Z,84.94
2017-10-06T07:35:51.644Z,84.17
2017-10-06T07:37:04.138Z,83.61
2017-10-06T07:38:16.321Z,83.22
2017-10-06T07:39:27.916Z,83.22
2017-10-06T07:40:40.410Z,82.84
2017-10-06T07:41:52.597Z,82.46
2017-10-06T07:43:05.092Z,82.46
2017-10-06T07:44:16.997Z,82.46
2017-10-06T07:45:29.191Z,82.46
2017-10-06T07:46:41.389Z,81.79
2017-10-06T07:47:52.984Z,82.08
2017-10-06T07:49:04.895Z,81.98
2017-10-06T07:50:16.791Z,82.37
2017-10-06T07:51:28.672Z,82.14
2017-10-06T07:52:41.182Z,82.37
2017-10-06T07:53:53.685Z,81.95
2017-10-06T07:55:05.582Z,81.85
2017-10-06T07:56:17.779Z,81.56
2017-10-06T07:57:30.273Z,81.18
2017-10-06T07:58:41.868Z,80.52
2017-10-06T07:59:54.064Z,79.6
2017-10-06T08:01:06.586Z,79.32
2017-10-06T08:02:18.498Z,79.22
2017-10-06T08:03:30.977Z,79.22
2017-10-06T08:04:43.491Z,79.13
2017-10-06T08:05:55.967Z,79.22
2017-10-06T08:07:07.539Z,79.7
2017-10-06T08:08:19.416Z,78.94
2017-10-06T08:09:31.904Z,78.75
2017-10-06T08:10:43.776Z,78.56
2017-10-06T08:11:56.271Z,78.08
2017-10-06T08:13:08.441Z,78.65
2017-10-06T08:14:20.630Z,78.65
2017-10-06T08:15:32.233Z,79.51
2017-10-06T08:16:44.746Z,80.08
2017-10-06T08:17:56.875Z,80.46
2017-10-06T08:19:08.770Z,82.65
2017-10-06T08:20:21.283Z,81.89
2017-10-06T08:21:33.479Z,80.36
2017-10-06T08:22:45.975Z,79.13
2017-10-06T08:23:58.453Z,81.26
2017-10-06T08:25:10.648Z,81.17
2017-10-06T08:26:23.161Z,80.79
2017-10-06T08:27:35.357Z,83.55
2017-10-06T08:28:47.586Z,84.88
2017-10-06T08:30:00.105Z,83.93
2017-10-06T08:31:12.319Z,85.08
2017-10-06T08:32:24.515Z,84.6
2017-10-06T08:33:36.693Z,85.88
2017-10-06T08:34:48.591Z,86.45
2017-10-06T08:36:00.501Z,90.26
2017-10-06T08:37:12.997Z,90.45
2017-10-06T08:38:25.221Z,89.03
2017-10-06T08:39:37.963Z,89.98
2017-10-06T08:40:50.442Z,93.51
2017-10-06T08:42:02.641Z,93.41
2017-10-06T08:43:14.234Z,93.51
2017-10-06T08:44:26.746Z,91.98
2017-10-06T08:45:39.242Z,91.79
2017-10-06T08:46:51.444Z,93.7
2017-10-06T08:48:03.650Z,93.51
2017-10-06T08:49:15.565Z,92.36
2017-10-06T08:50:27.774Z,93.12
2017-10-06T08:51:39.670Z,93.88
2017-10-06T08:52:51.565Z,95.51
2017-10-06T08:54:03.448Z,94.65
2017-10-06T08:55:15.640Z,94.08
2017-10-06T08:56:27.528Z,94.08
2017-10-06T08:57:39.706Z,94.74
2017-10-06T08:58:51.594Z,94.17
2017-10-06T09:00:03.821Z,95.51
2017-10-06T09:01:16.017Z,95.79
2017-10-06T09:02:28.531Z,95.7
2017-10-06T09:03:41.052Z,96.17
2017-10-06T09:04:53.547Z,96.84
2017-10-06T09:06:05.424Z,97.32
2017-10-06T09:07:17.297Z,96.36
2017-10-06T09:08:29.494Z,95.03
2017-10-06T09:09:41.705Z,97.7
2017-10-06T09:10:54.224Z,96.17
2017-10-06T09:12:06.404Z,95.12
2017-10-06T09:13:18.291Z,94.56
2017-10-06T09:14:30.470Z,94.74
2017-10-06T09:15:42.365Z,95.51
2017-10-06T09:16:54.879Z,93.98
2017-10-06T09:18:07.059Z,94.41
2017-10-06T09:19:19.573Z,94.89
2017-10-06T09:20:31.790Z,94.7
2017-10-06T09:21:43.971Z,97.75
2017-10-06T09:22:56.470Z,97.75
2017-10-06T09:24:08.977Z,99.56
2017-10-06T09:25:21.173Z,99.27
2017-10-06T09:26:33.069Z,98.32
2017-10-06T09:27:45.572Z,98.03
2017-10-06T09:28:57.760Z,97.66
2017-10-06T09:30:10.256Z,98.22
2017-10-06T09:31:22.759Z,98.61
2017-10-06T09:32:34.671Z,98.51
2017-10-06T09:33:46.568Z,98.61
2017-10-06T09:34:59.063Z,98.22
2017-10-06T09:36:10.659Z,98.99
2017-10-06T09:37:22.838Z,98.7
2017-10-06T09:38:35.037Z,99.46
2017-10-06T09:39:46.933Z,99.08
2017-10-06T09:40:59.126Z,98.61
2017-10-06T09:42:11.312Z,99.99
2017-10-06T09:43:23.507Z,99.85
2017-10-06T09:44:35.089Z,99.27
2017-10-06T09:45:47.299Z,99.85
2017-10-06T09:46:59.477Z,99.75
2017-10-06T09:48:11.391Z,98.99
2017-10-06T09:49:23.586Z,99.37
2017-10-06T09:50:35.766Z,99.99
2017-10-06T09:51:47.962Z,98.42
2017-10-06T09:53:00.148Z,99.46
2017-10-06T09:54:12.376Z,98.51
2017-10-06T09:55:24.572Z,97.17
2017-10-06T09:56:37.085Z,96.41
2017-10-06T09:57:49.606Z,96.89
2017-10-06T09:59:02.115Z,96.13
2017-10-06T10:00:14.322Z,97.32
2017-10-06T10:01:26.818Z,95.84
2017-10-06T10:02:38.704Z,94.74
2017-10-06T10:03:51.198Z,94.84
2017-10-06T10:05:03.706Z,94.84
2017-10-06T10:06:15.587Z,94.17
2017-10-06T10:07:27.796Z,93.51
2017-10-06T10:08:40.000Z,92.93
2017-10-06T10:09:52.512Z,93.03
2017-10-06T10:11:05.008Z,91.98
2017-10-06T10:12:16.591Z,92.93
2017-10-06T10:13:28.182Z,93.6
2017-10-06T10:14:40.396Z,93.08
2017-10-06T10:15:52.880Z,94.51
2017-10-06T10:17:05.396Z,93.22
2017-10-06T10:18:17.591Z,91.83
2017-10-06T10:19:30.129Z,91.03
2017-10-06T10:20:42.623Z,90.45
2017-10-06T10:21:54.819Z,89.79
2017-10-06T10:23:07.322Z,90.17
2017-10-06T10:24:19.537Z,90.36
2017-10-06T10:25:31.756Z,89.6
2017-10-06T10:26:44.260Z,89.79
2017-10-06T10:27:56.470Z,90.45
2017-10-06T10:29:08.051Z,88.74
2017-10-06T10:30:19.639Z,87.88
2017-10-06T10:31:30.943Z,87.4
2017-10-06T10:32:43.454Z,87.69
2017-10-06T10:33:55.651Z,86.07
2017-10-06T10:35:07.845Z,85.69
2017-10-06T10:36:20.027Z,84.83
2017-10-06T10:37:32.537Z,84.83
2017-10-06T10:38:45.033Z,85.12
2017-10-06T10:39:57.217Z,84.55
2017-10-06T10:41:08.824Z,82.73
2017-10-06T10:42:20.758Z,81.78
2017-10-06T10:43:32.649Z,81.78
2017-10-06T10:44:45.168Z,82.26
2017-10-06T10:45:57.670Z,83.31
2017-10-06T10:47:09.560Z,82.64
2017-10-06T10:48:21.731Z,82.97
2017-10-06T10:49:33.661Z,82.2
2017-10-06T10:50:46.165Z,80.96
2017-10-06T10:51:58.361Z,81.44
2017-10-06T10:53:10.242Z,82.87
2017-10-06T10:54:22.452Z,83.25
2017-10-06T10:55:34.330Z,86.11
2017-10-06T10:56:46.225Z,86.78
2017-10-06T10:57:58.744Z,85.35
2017-10-06T10:59:10.934Z,86.54
2017-10-06T11:00:23.130Z,90.17
2017-10-06T11:01:35.625Z,90.45
2017-10-06T11:02:47.505Z,91.02
2017-10-06T11:04:00.017Z,91.98
2017-10-06T11:05:11.912Z,92.26
2017-10-06T11:06:23.809Z,90.64
2017-10-06T11:07:35.704Z,91.21
2017-10-06T11:08:47.900Z,90.36
2017-10-06T11:09:59.785Z,90.07
2017-10-06T11:11:12.293Z,93.02
2017-10-06T11:12:24.471Z,91.31
2017-10-06T11:13:36.667Z,90.73
2017-10-06T11:14:48.878Z,89.59
2017-10-06T11:16:01.373Z,90.07
2017-10-06T11:17:13.869Z,89.5
2017-10-06T11:18:26.065Z,89.97
2017-10-06T11:19:38.560Z,94.27
2017-10-06T11:20:50.456Z,92.83
2017-10-06T11:22:02.337Z,91.69
2017-10-06T11:23:14.233Z,92.17
2017-10-06T11:24:26.129Z,91.21
2017-10-06T11:25:38.639Z,91.98
2017-10-06T11:26:50.519Z,90.55
2017-10-06T11:28:03.031Z,90.73
2017-10-06T11:29:14.926Z,92.65
2017-10-06T11:30:27.422Z,92.74
2017-10-06T11:31:39.618Z,93.98
2017-10-06T11:32:51.514Z,95.03
2017-10-06T11:34:03.713Z,93.51
2017-10-06T11:35:15.889Z,92.17
2017-10-06T11:36:28.400Z,92.21
2017-10-06T11:37:40.920Z,93.74
2017-10-06T11:38:53.417Z,96.03
2017-10-06T11:40:05.595Z,95.08
2017-10-06T11:41:17.190Z,94.12
2017-10-06T11:42:29.065Z,95.84
2017-10-06T11:43:40.957Z,94.46
2017-10-06T11:44:52.851Z,92.88
2017-10-06T11:46:05.040Z,94.98
2017-10-06T11:47:16.936Z,94.31
2017-10-06T11:48:29.431Z,94.98
2017-10-06T11:49:41.012Z,94.7
2017-10-06T11:50:53.210Z,94.89
2017-10-06T11:52:05.102Z,94.98
2017-10-06T11:53:17.323Z,96.13
2017-10-06T11:54:29.223Z,94.98
2017-10-06T11:55:41.131Z,94.98
2017-10-06T11:56:53.333Z,93.65
2017-10-06T11:58:05.836Z,93.46
2017-10-06T11:59:17.726Z,92.74
2017-10-06T12:00:29.914Z,93.6
2017-10-06T12:01:42.408Z,94.46
2017-10-06T12:02:54.286Z,92.36
2017-10-06T12:04:06.800Z,93.51
2017-10-06T12:05:18.696Z,94.27
2017-10-06T12:06:30.292Z,93.02
2017-10-06T12:07:42.492Z,94.17
2017-10-06T12:08:54.691Z,93.02
2017-10-06T12:10:06.590Z,92.83
2017-10-06T12:11:18.800Z,92.74
2017-10-06T12:12:30.695Z,92.74
2017-10-06T12:13:42.891Z,92.74
2017-10-06T12:14:55.069Z,92.74
2017-10-06T12:16:06.967Z,92.17
2017-10-06T12:17:19.153Z,93.02
2017-10-06T12:18:31.349Z,92.74
2017-10-06T12:19:43.845Z,93.98
2017-10-06T12:20:56.340Z,93.6
2017-10-06T12:22:08.220Z,94.07
2017-10-06T12:23:20.431Z,93.41
2017-10-06T12:24:32.627Z,93.7
2017-10-06T12:25:44.806Z,94.56
2017-10-06T12:26:56.993Z,94.93
2017-10-06T12:28:08.873Z,94.74
2017-10-06T12:29:21.383Z,93.7
2017-10-06T12:30:33.879Z,94.74
2017-10-06T12:31:45.763Z,95.03
2017-10-06T12:32:58.271Z,95.51
2017-10-06T12:34:10.149Z,95.79
2017-10-06T12:35:22.046Z,95.03
2017-10-06T12:36:33.959Z,95.32
2017-10-06T12:37:45.858Z,94.46
2017-10-06T12:38:57.446Z,95.12
2017-10-06T12:40:09.977Z,94.27
2017-10-06T12:41:21.866Z,96.37
2017-10-06T12:42:34.061Z,95.79
2017-10-06T12:43:46.258Z,97.13
2017-10-06T12:44:58.134Z,96.56
2017-10-06T12:46:10.351Z,96.37
2017-10-06T12:47:22.264Z,95.41
2017-10-06T12:48:34.165Z,97.61
2017-10-06T12:49:46.060Z,96.94
2017-10-06T12:50:57.955Z,97.32
2017-10-06T12:52:09.854Z,96.94
2017-10-06T12:53:22.348Z,97.8
2017-10-06T12:54:34.227Z,97.42
2017-10-06T12:55:46.742Z,97.99
2017-10-06T12:56:58.935Z,97.8
2017-10-06T12:58:10.855Z,96.22
2017-10-06T12:59:23.351Z,96.7
2017-10-06T13:00:35.547Z,95.46
2017-10-06T13:01:48.051Z,96.61
2017-10-06T13:02:59.938Z,98.71
2017-10-06T13:04:12.135Z,97.61
2017-10-06T13:05:24.329Z,97.61
2017-10-06T13:06:36.225Z,98.94
2017-10-06T13:07:48.821Z,99.33
2017-10-06T13:09:01.002Z,99.33
2017-10-06T13:10:12.596Z,99.99
2017-10-06T13:11:25.107Z,99.99
2017-10-06T13:12:37.004Z,99.99
2017-10-06T13:13:49.201Z,99.99
2017-10-06T13:15:01.103Z,99.99
2017-10-06T13:16:12.399Z,99.99
2017-10-06T13:17:24.910Z,99.99
2017-10-06T13:18:37.407Z,99.99
2017-10-06T13:19:49.902Z,99.99
2017-10-06T13:21:01.781Z,99.99
2017-10-06T13:22:13.681Z,99.99
2017-10-06T13:23:26.192Z,99.99
2017-10-06T13:24:38.085Z,99.99
2017-10-06T13:25:49.964Z,99.99
2017-10-06T13:27:02.176Z,99.99
2017-10-06T13:28:14.372Z,99.99
2017-10-06T13:29:26.855Z,98.75
2017-10-06T13:30:39.063Z,98.18
2017-10-06T13:31:51.259Z,95.98
2017-10-06T13:33:03.755Z,95.36
2017-10-06T13:34:15.950Z,93.65
2017-10-06T13:35:28.149Z,92.88
2017-10-06T13:36:40.642Z,91.83
2017-10-06T13:37:52.519Z,91.07
2017-10-06T13:39:04.409Z,93.88
2017-10-06T13:40:16.892Z,91.88
2017-10-06T13:41:29.082Z,91.31
2017-10-06T13:42:41.282Z,89.69
2017-10-06T13:43:53.791Z,90.26
2017-10-06T13:45:06.286Z,88.35
2017-10-06T13:46:18.482Z,87.68
2017-10-06T13:47:30.060Z,87.02
2017-10-06T13:48:42.258Z,86.02
2017-10-06T13:49:54.455Z,85.21
2017-10-06T13:51:06.664Z,84.01
2017-10-06T13:52:19.160Z,83.73
2017-10-06T13:53:31.368Z,83.83
2017-10-06T13:54:43.585Z,82.87
2017-10-06T13:55:56.097Z,82.87
2017-10-06T13:57:08.643Z,82.4
2017-10-06T13:58:20.222Z,82.87
2017-10-06T13:59:32.759Z,82.11
2017-10-06T14:00:44.663Z,81.44
2017-10-06T14:01:57.176Z,81.92
2017-10-06T14:03:09.671Z,80.58
2017-10-06T14:04:22.188Z,80.07
2017-10-06T14:05:34.374Z,79.11
2017-10-06T14:06:46.866Z,78.06
2017-10-06T14:07:59.381Z,77.3
2017-10-06T14:09:11.899Z,76.92
2017-10-06T14:10:24.095Z,76.06
2017-10-06T14:11:36.590Z,74.73
2017-10-06T14:12:49.136Z,74.63
2017-10-06T14:14:01.632Z,73.3
2017-10-06T14:15:14.152Z,71.96
2017-10-06T14:16:26.032Z,70.25
2017-10-06T14:17:38.230Z,67.29
2017-10-06T14:18:50.139Z,64.43
2017-10-06T14:20:02.019Z,63.67
2017-10-06T14:21:14.531Z,65.07
2017-10-06T14:22:27.051Z,64.69
2017-10-06T14:23:39.547Z,65.99
2017-10-06T14:24:51.426Z,66.08
2017-10-06T14:26:03.624Z,65.42
2017-10-06T14:27:16.117Z,64.18
2017-10-06T14:28:28.613Z,62.56
2017-10-06T14:29:41.111Z,61.22
2017-10-06T14:30:53.305Z,60.18
2017-10-06T14:32:05.176Z,59.42
2017-10-06T14:33:17.344Z,58.18
2017-10-06T14:34:29.558Z,56.56
2017-10-06T14:35:42.056Z,54.75
2017-10-06T14:36:54.548Z,52.18
2017-10-06T14:38:06.744Z,50.46
2017-10-06T14:39:18.942Z,48.37
2017-10-06T14:40:31.435Z,46.56
2017-10-06T14:41:43.315Z,44.66
2017-10-06T14:42:55.853Z,43.71
2017-10-06T14:44:08.056Z,42.28
2017-10-06T14:45:19.343Z,41.23
2017-10-06T14:46:31.538Z,40.37
2017-10-06T14:47:43.434Z,39.8
2017-10-06T14:48:55.638Z,39.32
2017-10-06T14:50:07.836Z,39.04
2017-10-06T14:51:20.371Z,38.95
2017-10-06T14:52:32.854Z,38.29
2017-10-06T14:53:45.349Z,37.23
2017-10-06T14:54:57.858Z,35.72
2017-10-06T14:56:10.038Z,34.96
2017-10-06T14:57:22.557Z,33.72
2017-10-06T14:58:34.678Z,32.87
2017-10-06T14:59:46.876Z,31.72
2017-10-06T15:00:58.745Z,31.13
2017-10-06T15:02:10.942Z,30.2
2017-10-06T15:03:23.440Z,29.71
2017-10-06T15:04:35.332Z,29.15
2017-10-06T15:05:47.851Z,28.1
2017-10-06T15:07:00.023Z,27.62
2017-10-06T15:08:12.210Z,26.1
2017-10-06T15:09:24.707Z,25.43
2017-10-06T15:10:36.602Z,25.43
2017-10-06T15:11:48.799Z,24.77
2017-10-06T15:13:00.993Z,24.48
2017-10-06T15:14:12.890Z,25.15
2017-10-06T15:15:25.393Z,25.53
2017-10-06T15:16:37.263Z,27.06
2017-10-06T15:17:49.458Z,28.1
2017-10-06T15:19:01.972Z,28.86
2017-10-06T15:20:14.442Z,29.15
2017-10-06T15:21:26.624Z,28.94
2017-10-06T15:22:38.558Z,29.25
2017-10-06T15:23:50.464Z,28.96
2017-10-06T15:25:02.675Z,29.05
2017-10-06T15:26:14.552Z,28.58
2017-10-06T15:27:27.049Z,28.1
2017-10-06T15:28:38.922Z,27.51
2017-10-06T15:29:50.817Z,27.34
2017-10-06T15:31:03.312Z,26.67
2017-10-06T15:32:15.498Z,26.58